Terminal Aerodrome Forecast
Issued by NWS Pocatello, ID

Home | Current Version | Previous Version | Text Only | Print | Product List | Glossary On
Versions: 1 2 3 4 5 6 7 8 9 10 11 12 13
000
FTUS45 KPIH 312322
TAFIDA
TAF
KIDA 312322Z 0100/0124 22014KT P6SM SKC
     FM010200 18006KT P6SM FEW130
     FM012000 23015G25KT P6SM SCT130=

USA.gov is the U.S. government's official web portal to all federal, state and local government web resources and services.